createdAt,value
2023-04-21T00:00:54.769Z,85.13
2023-04-21T00:03:44.177Z,85.36
2023-04-21T00:06:33.125Z,84.97
2023-04-21T00:09:21.718Z,84.23
2023-04-21T00:12:10.318Z,84.40
2023-04-21T00:15:00.195Z,84.93
2023-04-21T00:17:48.610Z,85.17
2023-04-21T00:20:37.046Z,85.35
2023-04-21T00:23:25.372Z,85.04
2023-04-21T00:26:13.815Z,84.64
2023-04-21T00:29:05.291Z,84.27
2023-04-21T00:31:55.088Z,84.17
2023-04-21T00:34:43.555Z,84.38
2023-04-21T00:37:33.972Z,84.37
2023-04-21T00:40:22.556Z,85.04
2023-04-21T00:43:10.970Z,84.03
2023-04-21T00:45:59.275Z,83.89
2023-04-21T00:48:48.957Z,84.48
2023-04-21T00:51:38.448Z,84.04
2023-04-21T00:54:27.025Z,84.19
2023-04-21T00:57:15.472Z,84.14
2023-04-21T01:00:05.798Z,83.42
2023-04-21T01:02:54.284Z,84.12
2023-04-21T01:05:44.243Z,83.42
2023-04-21T01:08:33.494Z,83.06
2023-04-21T01:11:21.885Z,83.77
2023-04-21T01:14:10.238Z,84.93
2023-04-21T01:16:59.513Z,84.74
2023-04-21T01:19:47.931Z,85.69
2023-04-21T01:22:38.548Z,85.51
2023-04-21T01:25:28.590Z,86.24
2023-04-21T01:28:22.854Z,85.84
2023-04-21T01:31:11.436Z,85.61
2023-04-21T01:34:04.661Z,84.19
2023-04-21T01:36:53.036Z,84.54
2023-04-21T01:39:44.077Z,84.26
2023-04-21T01:42:34.209Z,84.24
2023-04-21T01:45:22.885Z,83.48
2023-04-21T01:48:11.338Z,83.49
2023-04-21T01:51:01.301Z,84.07
2023-04-21T01:53:49.777Z,83.42
2023-04-21T01:56:40.161Z,83.30
2023-04-21T01:59:28.584Z,83.80
2023-04-21T02:02:16.987Z,83.16
2023-04-21T02:05:06.108Z,83.54
2023-04-21T02:07:54.863Z,82.76
2023-04-21T02:10:44.144Z,84.32
2023-04-21T02:13:35.914Z,84.33
2023-04-21T02:16:26.303Z,84.15
2023-04-21T02:19:14.837Z,84.17
2023-04-21T02:22:04.084Z,84.17
2023-04-21T02:24:52.777Z,83.98
2023-04-21T02:27:41.195Z,84.77
2023-04-21T02:30:31.010Z,84.14
2023-04-21T02:33:19.655Z,83.73
2023-04-21T02:36:10.175Z,84.29
2023-04-21T02:38:58.512Z,84.43
2023-04-21T02:41:46.942Z,84.04
2023-04-21T02:44:35.296Z,84.83
2023-04-21T02:47:25.055Z,84.57
2023-04-21T02:50:14.797Z,85.80
2023-04-21T02:53:03.367Z,85.43
2023-04-21T02:55:51.729Z,84.86
2023-04-21T02:58:40.676Z,85.34
2023-04-21T03:01:29.068Z,84.48
2023-04-21T03:04:19.819Z,84.32
2023-04-21T03:07:12.991Z,84.86
2023-04-21T03:10:01.488Z,84.91
2023-04-21T03:12:51.335Z,85.75
2023-04-21T03:15:39.709Z,85.46
2023-04-21T03:18:28.271Z,86.38
2023-04-21T03:21:18.060Z,86.01
2023-04-21T03:24:07.512Z,85.18
2023-04-21T03:26:57.053Z,85.66
2023-04-21T03:29:45.569Z,85.68
2023-04-21T03:32:34.090Z,85.57
2023-04-21T03:35:22.570Z,85.69
2023-04-21T03:38:12.352Z,85.95
2023-04-21T03:41:00.881Z,85.68
2023-04-21T03:44:14.598Z,85.73
2023-04-21T03:47:03.768Z,85.87
2023-04-21T03:49:52.170Z,85.93
2023-04-21T03:52:41.021Z,86.24
2023-04-21T03:55:30.775Z,86.50
2023-04-21T03:58:19.453Z,86.39
2023-04-21T04:01:08.036Z,86.38
2023-04-21T04:03:56.776Z,86.12
2023-04-21T04:06:45.388Z,86.37
2023-04-21T04:09:33.849Z,86.18
2023-04-21T04:12:23.626Z,85.68
2023-04-21T04:15:12.379Z,86.16
2023-04-21T04:18:01.736Z,86.10
2023-04-21T04:20:50.287Z,86.49
2023-04-21T04:23:38.967Z,86.30
2023-04-21T04:26:27.499Z,86.44
2023-04-21T04:29:18.004Z,86.42
2023-04-21T04:32:06.732Z,86.70
2023-04-21T04:34:55.868Z,86.46
2023-04-21T04:37:45.578Z,86.22
2023-04-21T04:40:34.056Z,86.38
2023-04-21T04:43:22.629Z,86.24
2023-04-21T04:46:13.200Z,85.93
2023-04-21T04:49:01.906Z,86.19
2023-04-21T04:51:50.367Z,86.54
2023-04-21T04:54:38.786Z,86.29
2023-04-21T04:57:27.184Z,86.19
2023-04-21T05:00:16.109Z,86.20
2023-04-21T05:03:06.101Z,86.40
2023-04-21T05:05:54.653Z,86.50
2023-04-21T05:08:43.031Z,86.29
2023-04-21T05:11:31.517Z,86.29
2023-04-21T05:14:20.174Z,86.65
2023-04-21T05:17:09.075Z,86.06
2023-04-21T05:19:58.852Z,85.78
2023-04-21T05:22:47.267Z,86.45
2023-04-21T05:25:35.853Z,86.40
2023-04-21T05:28:24.294Z,86.93
2023-04-21T05:31:12.675Z,87.80
2023-04-21T05:34:01.066Z,88.37
2023-04-21T05:36:52.312Z,88.67
2023-04-21T05:39:40.797Z,89.42
2023-04-21T05:42:29.166Z,90.14
2023-04-21T05:45:17.748Z,90.28
2023-04-21T05:48:06.985Z,90.85
2023-04-21T05:50:55.487Z,91.21
2023-04-21T05:53:47.551Z,91.70
2023-04-21T05:56:36.059Z,92.27
2023-04-21T05:59:26.409Z,92.01
2023-04-21T06:02:14.906Z,92.10
2023-04-21T06:05:03.859Z,92.32
2023-04-21T06:07:52.445Z,92.29
2023-04-21T06:10:42.706Z,91.87
2023-04-21T06:13:31.064Z,90.60
2023-04-21T06:16:19.506Z,91.82
2023-04-21T06:19:07.958Z,91.58
2023-04-21T06:21:57.789Z,90.58
2023-04-21T06:24:46.210Z,89.95
2023-04-21T06:27:36.067Z,89.70
2023-04-21T06:30:24.950Z,89.79
2023-04-21T06:33:13.405Z,89.44
2023-04-21T06:36:01.863Z,89.62
2023-04-21T06:38:50.392Z,89.04
2023-04-21T06:41:38.899Z,87.99
2023-04-21T06:44:29.236Z,87.90
2023-04-21T06:47:17.864Z,87.42
2023-04-21T06:50:07.531Z,85.72
2023-04-21T06:52:56.021Z,86.30
2023-04-21T06:55:44.433Z,85.75
2023-04-21T06:58:32.866Z,85.96
2023-04-21T07:01:24.369Z,85.43
2023-04-21T07:04:12.998Z,85.53
2023-04-21T07:07:03.094Z,84.75
2023-04-21T07:09:51.832Z,84.09
2023-04-21T07:12:40.247Z,84.36
2023-04-21T07:15:28.766Z,84.10
2023-04-21T07:18:18.685Z,83.52
2023-04-21T07:21:07.262Z,83.80
2023-04-21T07:23:55.656Z,82.65
2023-04-21T07:26:44.120Z,83.42
2023-04-21T07:29:32.589Z,82.93
2023-04-21T07:32:21.198Z,83.65
2023-04-21T07:35:11.403Z,81.97
2023-04-21T07:37:59.868Z,82.33
2023-04-21T07:40:48.282Z,82.35
2023-04-21T07:43:36.819Z,82.03
2023-04-21T07:46:30.306Z,82.16
2023-04-21T07:49:18.893Z,82.05
2023-04-21T07:52:08.805Z,81.61
2023-04-21T07:54:57.411Z,82.72
2023-04-21T07:57:45.881Z,81.34
2023-04-21T08:00:34.569Z,80.53
2023-04-21T08:03:24.457Z,79.88
2023-04-21T08:06:13.344Z,79.52
2023-04-21T08:09:03.530Z,79.73
2023-04-21T08:11:52.065Z,79.68
2023-04-21T08:14:40.996Z,78.79
2023-04-21T08:17:29.502Z,77.72
2023-04-21T08:20:18.039Z,78.18
2023-04-21T08:23:06.562Z,78.44
2023-04-21T08:25:56.455Z,77.74
2023-04-21T08:28:44.891Z,77.40
2023-04-21T08:31:33.905Z,78.23
2023-04-21T08:34:24.192Z,78.71
2023-04-21T08:37:14.237Z,78.52
2023-04-21T08:40:02.666Z,79.12
2023-04-21T08:42:52.456Z,79.14
2023-04-21T08:45:41.315Z,78.94
2023-04-21T08:48:31.055Z,78.69
2023-04-21T08:51:24.389Z,79.30
2023-04-21T08:54:13.404Z,79.69
2023-04-21T08:57:14.164Z,80.49
2023-04-21T09:00:07.918Z,79.24
2023-04-21T09:03:01.155Z,79.14
2023-04-21T09:05:59.108Z,79.51
2023-04-21T09:08:56.751Z,78.05
2023-04-21T09:12:03.533Z,77.96
2023-04-21T09:14:52.423Z,78.30
2023-04-21T09:17:42.274Z,77.49
2023-04-21T09:20:31.394Z,77.93
2023-04-21T09:23:19.883Z,77.77
2023-04-21T09:26:08.485Z,78.87
2023-04-21T09:28:56.885Z,77.34
2023-04-21T09:31:45.886Z,78.10
2023-04-21T09:34:42.752Z,78.29
2023-04-21T09:37:33.822Z,77.80
2023-04-21T09:40:22.275Z,77.15
2023-04-21T09:43:11.864Z,76.56
2023-04-21T09:46:01.693Z,75.41
2023-04-21T09:48:50.145Z,74.47
2023-04-21T09:52:09.706Z,73.68
2023-04-21T09:54:52.095Z,73.89
2023-04-21T09:57:43.000Z,73.25
2023-04-21T10:00:31.435Z,74.30
2023-04-21T10:03:21.569Z,74.06
2023-04-21T10:06:10.378Z,70.74
2023-04-21T10:09:00.459Z,70.66
2023-04-21T10:11:48.928Z,72.30
2023-04-21T10:14:37.436Z,70.34
2023-04-21T10:17:27.409Z,70.32
2023-04-21T10:20:16.776Z,71.21
2023-04-21T10:23:05.287Z,70.69
2023-04-21T10:25:55.391Z,69.60
2023-04-21T10:28:46.670Z,70.67
2023-04-21T10:32:00.405Z,69.24
2023-04-21T10:34:49.107Z,68.89
2023-04-21T10:37:37.816Z,69.56
2023-04-21T10:43:49.605Z,69.03
2023-04-21T10:46:39.728Z,67.75
2023-04-21T10:49:30.329Z,67.34
2023-04-21T10:52:20.979Z,67.58
2023-04-21T10:55:12.740Z,66.69
2023-04-21T10:58:03.697Z,68.45
2023-04-21T11:00:56.515Z,65.21
2023-04-21T11:03:45.162Z,67.36
2023-04-21T11:06:33.808Z,67.01
2023-04-21T11:09:22.233Z,66.10
2023-04-21T11:12:11.710Z,65.38
2023-04-21T11:15:00.238Z,64.49
2023-04-21T11:17:51.298Z,66.02
2023-04-21T11:20:41.614Z,65.36
2023-04-21T11:23:30.206Z,65.83
2023-04-21T11:26:19.306Z,63.71
2023-04-21T11:29:09.297Z,62.41
2023-04-21T11:31:59.099Z,62.67
2023-04-21T11:34:48.975Z,61.38
2023-04-21T11:37:37.904Z,61.36
2023-04-21T11:40:26.301Z,61.39
2023-04-21T11:43:14.785Z,60.10
2023-04-21T11:46:13.994Z,61.19
2023-04-21T11:49:04.450Z,60.88
2023-04-21T11:51:54.259Z,61.08
2023-04-21T11:54:45.651Z,60.94
2023-04-21T11:57:35.166Z,59.54
2023-04-21T12:00:23.635Z,60.09
2023-04-21T12:03:12.617Z,59.36
2023-04-21T12:06:01.212Z,60.18
2023-04-21T12:08:55.682Z,57.66
2023-04-21T12:11:44.203Z,56.52
2023-04-21T12:14:34.704Z,56.36
2023-04-21T12:17:23.233Z,58.55
2023-04-21T12:20:12.855Z,56.16
2023-04-21T12:23:01.299Z,56.70
2023-04-21T12:25:51.532Z,57.17
2023-04-21T12:28:40.275Z,55.74
2023-04-21T12:31:28.889Z,55.15
2023-04-21T12:34:17.388Z,55.23
2023-04-21T12:37:06.163Z,54.34
2023-04-21T12:39:54.606Z,55.23
2023-04-21T12:42:44.424Z,53.49
2023-04-21T12:45:33.159Z,52.51
2023-04-21T12:48:21.713Z,51.91
2023-04-21T12:51:10.730Z,50.76
2023-04-21T12:53:59.142Z,50.43
2023-04-21T12:56:47.574Z,50.08
2023-04-21T12:59:37.308Z,52.22
2023-04-21T13:02:26.119Z,51.67
2023-04-21T13:05:15.112Z,51.49
2023-04-21T13:08:03.512Z,50.15
2023-04-21T13:10:53.405Z,50.88
2023-04-21T13:13:44.649Z,50.88
2023-04-21T13:16:34.479Z,51.46
2023-04-21T13:19:23.011Z,51.08
2023-04-21T13:22:11.458Z,49.15
2023-04-21T13:24:59.881Z,53.79
2023-04-21T13:27:48.350Z,51.03
2023-04-21T13:30:36.984Z,49.82
2023-04-21T13:33:26.963Z,47.01
2023-04-21T13:36:15.558Z,48.68
2023-04-21T13:39:04.687Z,48.81
2023-04-21T13:41:54.364Z,50.59
2023-04-21T13:44:43.001Z,47.60
2023-04-21T13:47:34.487Z,47.49
2023-04-21T13:50:24.372Z,44.97
2023-04-21T13:53:14.104Z,47.70
2023-04-21T13:56:02.596Z,46.50
2023-04-21T13:58:51.100Z,45.21
2023-04-21T14:01:39.555Z,49.21
2023-04-21T14:04:28.210Z,43.89
2023-04-21T14:07:19.522Z,45.38
2023-04-21T14:10:09.120Z,45.53
2023-04-21T14:12:57.560Z,45.42
2023-04-21T14:15:46.089Z,43.90
2023-04-21T14:18:34.587Z,44.14
2023-04-21T14:21:23.015Z,43.38
2023-04-21T14:24:12.870Z,44.86
2023-04-21T14:27:01.296Z,44.87
2023-04-21T14:29:49.760Z,43.52
2023-04-21T14:32:38.626Z,42.51
2023-04-21T14:35:27.323Z,43.29
2023-04-21T14:38:15.751Z,41.36
2023-04-21T14:41:05.926Z,40.64
2023-04-21T14:43:56.596Z,38.86
2023-04-21T14:46:53.324Z,43.34
2023-04-21T14:49:54.676Z,38.96
2023-04-21T14:52:43.899Z,38.46
2023-04-21T14:55:32.309Z,39.88
2023-04-21T14:58:22.166Z,39.17
2023-04-21T15:01:11.327Z,38.67
2023-04-21T15:04:00.672Z,38.78
2023-04-21T15:06:49.451Z,36.90
2023-04-21T15:09:39.083Z,38.10
2023-04-21T15:12:27.561Z,37.06
2023-04-21T15:15:17.403Z,36.56
2023-04-21T15:18:05.914Z,37.62
2023-04-21T15:20:54.354Z,36.71
2023-04-21T15:23:42.878Z,37.13
2023-04-21T15:26:31.426Z,36.07
2023-04-21T15:29:19.838Z,36.04
2023-04-21T15:32:09.702Z,36.42
2023-04-21T15:34:58.100Z,39.41
2023-04-21T15:37:46.537Z,38.81
2023-04-21T15:40:37.518Z,35.90
2023-04-21T15:43:30.209Z,37.97
2023-04-21T15:46:18.709Z,36.07
2023-04-21T15:49:08.520Z,38.51
2023-04-21T15:51:57.240Z,36.55
2023-04-21T15:54:47.100Z,36.29
2023-04-21T15:57:35.552Z,36.11
2023-04-21T16:00:24.630Z,37.72
2023-04-21T16:03:13.292Z,39.19
2023-04-21T16:06:03.523Z,37.61
2023-04-21T16:08:52.371Z,36.27
2023-04-21T16:11:40.955Z,36.89
2023-04-21T16:14:39.326Z,37.25
2023-04-21T16:17:36.593Z,37.89
2023-04-21T16:20:25.887Z,37.41
2023-04-21T16:23:16.534Z,38.45
2023-04-21T16:26:05.962Z,39.19
2023-04-21T16:28:55.553Z,38.15
2023-04-21T16:31:44.017Z,38.15
2023-04-21T16:34:32.567Z,38.67
2023-04-21T16:37:20.948Z,39.70
2023-04-21T16:40:11.979Z,40.15
2023-04-21T16:43:00.550Z,41.03
2023-04-21T16:45:49.177Z,41.32
2023-04-21T16:48:37.846Z,40.88
2023-04-21T16:51:28.503Z,41.07
2023-04-21T16:54:17.045Z,42.30
2023-04-21T16:57:07.111Z,41.89
2023-04-21T16:59:55.634Z,42.17
2023-04-21T17:02:44.294Z,42.03
2023-04-21T17:05:32.815Z,43.03
2023-04-21T17:08:21.302Z,43.30
2023-04-21T17:11:09.693Z,43.65
2023-04-21T17:13:59.580Z,43.13
2023-04-21T17:16:48.168Z,44.18
2023-04-21T17:19:36.841Z,44.34
2023-04-21T17:22:25.244Z,45.07
2023-04-21T17:25:13.769Z,45.27
2023-04-21T17:28:02.430Z,45.84
2023-04-21T17:31:00.240Z,45.82
2023-04-21T17:33:57.247Z,45.58
2023-04-21T17:36:45.748Z,45.96
2023-04-21T17:39:34.120Z,46.02
2023-04-21T17:42:22.739Z,46.99
2023-04-21T17:45:12.029Z,46.70
2023-04-21T17:48:01.913Z,47.30
2023-04-21T17:50:50.486Z,47.10
2023-04-21T17:53:39.180Z,47.03
2023-04-21T17:56:27.823Z,47.17
2023-04-21T17:59:16.448Z,47.42
2023-04-21T18:02:05.337Z,47.65
2023-04-21T18:04:55.425Z,47.93
2023-04-21T18:07:43.906Z,48.08
2023-04-21T18:10:32.426Z,47.97
2023-04-21T18:13:21.012Z,48.42
2023-04-21T18:16:09.642Z,48.58
2023-04-21T18:18:58.080Z,49.03
2023-04-21T18:21:47.976Z,49.79
2023-04-21T18:24:36.722Z,48.90
2023-04-21T18:27:25.361Z,49.59
2023-04-21T18:30:14.132Z,49.76
2023-04-21T18:33:02.709Z,50.22
2023-04-21T18:35:51.332Z,50.62
2023-04-21T18:38:41.166Z,50.41
2023-04-21T18:41:29.764Z,51.24
2023-04-21T18:44:18.262Z,50.79
2023-04-21T18:47:06.751Z,51.26
2023-04-21T18:49:55.421Z,51.36
2023-04-21T18:52:43.908Z,51.73
2023-04-21T18:55:33.914Z,51.69
2023-04-21T18:58:22.623Z,51.73
2023-04-21T19:01:11.296Z,52.01
2023-04-21T19:04:00.023Z,52.17
2023-04-21T19:06:49.482Z,52.57
2023-04-21T19:09:37.940Z,53.22
2023-04-21T19:12:28.874Z,53.38
2023-04-21T19:15:17.355Z,53.61
2023-04-21T19:18:06.553Z,53.63
2023-04-21T19:20:55.140Z,54.25
2023-04-21T19:23:43.533Z,54.14
2023-04-21T19:26:31.998Z,54.24
2023-04-21T19:29:21.770Z,54.11
2023-04-21T19:32:10.188Z,54.53
2023-04-21T19:34:58.622Z,54.96
2023-04-21T19:37:47.126Z,54.55
2023-04-21T19:40:35.521Z,55.12
2023-04-21T19:43:24.069Z,55.14
2023-04-21T19:46:14.051Z,55.43
2023-04-21T19:49:02.684Z,55.76
2023-04-21T19:51:51.732Z,55.54
2023-04-21T19:54:40.451Z,55.67
2023-04-21T19:57:29.024Z,56.49
2023-04-21T20:00:18.217Z,56.37
2023-04-21T20:03:08.952Z,56.33
2023-04-21T20:05:57.610Z,56.59
2023-04-21T20:08:46.171Z,56.75
2023-04-21T20:11:34.806Z,56.72
2023-04-21T20:14:23.356Z,57.36
2023-04-21T20:17:11.737Z,57.67
2023-04-21T20:20:02.026Z,58.42
2023-04-21T20:22:50.494Z,58.91
2023-04-21T20:25:39.164Z,58.68
2023-04-21T20:28:28.257Z,59.40
2023-04-21T20:31:18.010Z,60.16
2023-04-21T20:34:06.768Z,60.51
2023-04-21T20:36:56.931Z,59.03
2023-04-21T20:39:46.760Z,59.32
2023-04-21T20:42:35.201Z,59.44
2023-04-21T20:45:23.823Z,58.97
2023-04-21T20:48:12.265Z,58.95
2023-04-21T20:51:01.150Z,60.23
2023-04-21T20:53:50.945Z,59.47
2023-04-21T20:56:39.628Z,59.90
2023-04-21T20:59:28.068Z,59.41
2023-04-21T21:02:16.593Z,59.92
2023-04-21T21:05:05.422Z,61.02
2023-04-21T21:07:54.123Z,62.15
2023-04-21T21:10:43.870Z,62.28
2023-04-21T21:13:32.491Z,62.55
2023-04-21T21:16:21.008Z,62.82
2023-04-21T21:19:10.023Z,62.68
2023-04-21T21:21:58.423Z,62.36
2023-04-21T21:24:46.825Z,63.13
2023-04-21T21:27:36.626Z,63.87
2023-04-21T21:30:25.050Z,64.20
2023-04-21T21:33:13.526Z,64.25
2023-04-21T21:36:01.968Z,64.54
2023-04-21T21:38:50.397Z,64.75
2023-04-21T21:41:39.753Z,65.33
2023-04-21T21:44:29.580Z,65.13
2023-04-21T21:47:18.223Z,65.25
2023-04-21T21:50:07.710Z,65.30
2023-04-21T21:52:56.148Z,65.36
2023-04-21T21:55:44.615Z,65.69
2023-04-21T21:58:33.100Z,65.37
2023-04-21T22:01:23.100Z,65.20
2023-04-21T22:04:11.679Z,64.87
2023-04-21T22:07:00.179Z,65.00
2023-04-21T22:09:48.613Z,64.65
2023-04-21T22:12:37.199Z,63.63
2023-04-21T22:15:25.586Z,64.51
2023-04-21T22:18:18.372Z,65.01
2023-04-21T22:21:06.935Z,65.78
2023-04-21T22:23:55.445Z,65.81
2023-04-21T22:26:44.142Z,66.29
2023-04-21T22:29:32.560Z,66.87
2023-04-21T22:32:20.981Z,66.52
2023-04-21T22:35:10.974Z,66.89
2023-04-21T22:37:59.356Z,66.66
2023-04-21T22:40:48.061Z,66.38
2023-04-21T22:43:36.476Z,66.49
2023-04-21T22:46:25.026Z,66.38
2023-04-21T22:49:14.284Z,66.78
2023-04-21T22:52:04.078Z,67.08
2023-04-21T22:54:52.435Z,67.05
2023-04-21T22:57:40.939Z,67.50
2023-04-21T23:00:29.323Z,67.61
2023-04-21T23:03:18.022Z,67.95
2023-04-21T23:06:06.970Z,68.09
2023-04-21T23:08:56.703Z,68.19
2023-04-21T23:11:45.102Z,68.17
2023-04-21T23:14:33.462Z,67.73
2023-04-21T23:17:22.168Z,68.10
2023-04-21T23:20:11.599Z,68.39
2023-04-21T23:22:59.994Z,67.58
2023-04-21T23:25:49.777Z,67.07
2023-04-21T23:28:38.278Z,66.84
2023-04-21T23:31:26.994Z,67.16
2023-04-21T23:34:15.792Z,67.11
2023-04-21T23:37:04.159Z,67.39
2023-04-21T23:39:52.528Z,67.95
2023-04-21T23:42:42.312Z,67.58
2023-04-21T23:45:36.055Z,67.88
2023-04-21T23:48:24.482Z,68.27
2023-04-21T23:51:13.018Z,67.90
2023-04-21T23:54:01.698Z,68.24
2023-04-21T23:56:50.080Z,68.51
2023-04-21T23:59:40.176Z,68.15
